createdAt,value
2016-06-13T00:00:39.485Z,0
2016-06-13T00:01:39.488Z,0
2016-06-13T00:02:39.427Z,0
2016-06-13T00:03:39.430Z,0
2016-06-13T00:04:39.403Z,0
2016-06-13T00:05:39.234Z,0
2016-06-13T00:06:39.362Z,0
2016-06-13T00:07:39.349Z,0
2016-06-13T00:08:39.337Z,0
2016-06-13T00:09:39.309Z,0
2016-06-13T00:10:39.702Z,0
2016-06-13T00:11:39.158Z,0
2016-06-13T00:12:39.241Z,0
2016-06-13T00:13:39.071Z,0
2016-06-13T00:14:39.199Z,0
2016-06-13T00:15:39.374Z,0
2016-06-13T00:16:39.159Z,0
2016-06-13T00:17:39.162Z,0
2016-06-13T00:18:39.133Z,0
2016-06-13T00:19:39.090Z,0
2016-06-13T00:20:39.077Z,0
2016-06-13T00:21:38.924Z,0
2016-06-13T00:22:39.052Z,0
2016-06-13T00:23:39.009Z,0
2016-06-13T00:24:38.995Z,0
2016-06-13T00:25:39.623Z,0
2016-06-13T00:26:39.236Z,0
2016-06-13T00:27:38.786Z,0
2016-06-13T00:28:38.915Z,0
2016-06-13T00:29:38.901Z,0
2016-06-13T00:30:38.873Z,0
2016-06-13T00:31:38.861Z,0
2016-06-13T00:32:38.848Z,0
2016-06-13T00:33:38.820Z,0
2016-06-13T00:34:38.808Z,0
2016-06-13T00:35:38.779Z,0
2016-06-13T00:36:38.767Z,0
2016-06-13T00:37:38.754Z,0
2016-06-13T00:38:38.726Z,0
2016-06-13T00:39:38.699Z,0
2016-06-13T00:40:39.076Z,0
2016-06-13T00:41:39.719Z,0
2016-06-13T00:42:38.645Z,0
2016-06-13T00:43:38.617Z,0
2016-06-13T00:44:38.445Z,0
2016-06-13T00:45:38.259Z,0
2016-06-13T00:46:38.562Z,0
2016-06-13T00:47:38.531Z,0
2016-06-13T00:48:38.519Z,0
2016-06-13T00:49:38.491Z,0
2016-06-13T00:50:38.463Z,0
2016-06-13T00:51:38.450Z,0
2016-06-13T00:52:38.438Z,0
2016-06-13T00:53:38.425Z,0
2016-06-13T00:54:38.382Z,0
2016-06-13T00:55:38.228Z,0
2016-06-13T00:56:39.251Z,0
2016-06-13T00:57:38.329Z,0
2016-06-13T00:58:38.316Z,0
2016-06-13T00:59:38.288Z,0
2016-06-13T01:00:38.275Z,0
2016-06-13T01:01:38.247Z,0
2016-06-13T01:02:38.234Z,0
2016-06-13T01:03:38.222Z,0
2016-06-13T01:04:38.193Z,0
2016-06-13T01:05:38.182Z,0
2016-06-13T01:06:38.012Z,0
2016-06-13T01:07:38.140Z,0
2016-06-13T01:08:38.113Z,0
2016-06-13T01:09:38.099Z,0
2016-06-13T01:10:38.258Z,0
2016-06-13T01:11:37.918Z,0
2016-06-13T01:12:38.031Z,0
2016-06-13T01:13:38.065Z,0
2016-06-13T01:14:37.786Z,0
2016-06-13T01:15:37.868Z,0
2016-06-13T01:16:37.949Z,0
2016-06-13T01:17:37.999Z,0
2016-06-13T01:18:37.830Z,0
2016-06-13T01:19:37.896Z,0
2016-06-13T01:20:37.867Z,0
2016-06-13T01:21:37.839Z,0
2016-06-13T01:22:37.828Z,0
2016-06-13T01:23:37.815Z,0
2016-06-13T01:24:37.786Z,0
2016-06-13T01:25:37.836Z,0
2016-06-13T01:26:38.292Z,0
2016-06-13T01:27:37.733Z,0
2016-06-13T01:28:37.705Z,0
2016-06-13T01:29:37.692Z,0
2016-06-13T01:30:37.664Z,0
2016-06-13T01:31:37.651Z,0
2016-06-13T01:32:37.639Z,0
2016-06-13T01:33:37.595Z,0
2016-06-13T01:34:37.599Z,0
2016-06-13T01:35:37.570Z,0
2016-06-13T01:36:37.541Z,0
2016-06-13T01:37:37.514Z,0
2016-06-13T01:38:37.361Z,0
2016-06-13T01:39:37.489Z,0
2016-06-13T01:40:38.428Z,0
2016-06-13T01:41:37.761Z,0
2016-06-13T01:42:37.420Z,0
2016-06-13T01:43:37.407Z,0
2016-06-13T01:44:37.379Z,0
2016-06-13T01:45:37.367Z,0
2016-06-13T01:46:37.338Z,0
2016-06-13T01:47:37.325Z,0
2016-06-13T01:48:37.313Z,0
2016-06-13T01:49:37.285Z,0
2016-06-13T01:50:37.257Z,0
2016-06-13T01:51:37.228Z,0
2016-06-13T01:52:37.215Z,0
2016-06-13T01:53:37.203Z,0
2016-06-13T01:54:37.176Z,0
2016-06-13T01:55:37.162Z,0
2016-06-13T01:56:37.228Z,0
2016-06-13T01:57:37.122Z,0
2016-06-13T01:58:37.094Z,0
2016-06-13T01:59:37.066Z,0
2016-06-13T02:00:37.053Z,0
2016-06-13T02:01:37.041Z,0
2016-06-13T02:02:37.028Z,0
2016-06-13T02:03:36.999Z,0
2016-06-13T02:04:36.972Z,0
2016-06-13T02:05:36.974Z,0
2016-06-13T02:06:36.947Z,0
2016-06-13T02:07:36.762Z,0
2016-06-13T02:08:36.889Z,0
2016-06-13T02:09:36.862Z,0
2016-06-13T02:10:36.865Z,0
2016-06-13T02:11:38.071Z,0
2016-06-13T02:12:36.824Z,0
2016-06-13T02:13:36.796Z,0
2016-06-13T02:14:36.783Z,0
2016-06-13T02:15:36.756Z,0
2016-06-13T02:16:36.727Z,0
2016-06-13T02:17:36.558Z,0
2016-06-13T02:18:36.702Z,0
2016-06-13T02:19:36.674Z,0
2016-06-13T02:20:36.646Z,0
2016-06-13T02:21:36.634Z,0
2016-06-13T02:22:36.621Z,0
2016-06-13T02:23:36.593Z,0
2016-06-13T02:24:36.564Z,0
2016-06-13T02:25:36.552Z,0
2016-06-13T02:26:36.774Z,0
2016-06-13T02:27:36.527Z,0
2016-06-13T02:28:36.326Z,0
2016-06-13T02:29:36.471Z,0
2016-06-13T02:30:36.442Z,0
2016-06-13T02:31:36.274Z,0
2016-06-13T02:32:36.418Z,0
2016-06-13T02:33:36.389Z,0
2016-06-13T02:34:36.360Z,0
2016-06-13T02:35:36.348Z,4
2016-06-13T02:36:36.320Z,4
2016-06-13T02:37:36.292Z,4
2016-06-13T02:38:36.279Z,4
2016-06-13T02:39:36.267Z,4
2016-06-13T02:40:36.254Z,4
2016-06-13T02:41:36.570Z,4
2016-06-13T02:42:36.198Z,0
2016-06-13T02:43:36.186Z,4
2016-06-13T02:44:36.158Z,4
2016-06-13T02:45:36.144Z,8
2016-06-13T02:46:36.117Z,8
2016-06-13T02:47:36.104Z,4
2016-06-13T02:48:36.092Z,8
2016-06-13T02:49:36.047Z,8
2016-06-13T02:50:36.034Z,8
2016-06-13T02:51:36.038Z,8
2016-06-13T02:52:36.010Z,12
2016-06-13T02:53:35.997Z,12
2016-06-13T02:54:35.953Z,12
2016-06-13T02:55:35.942Z,16
2016-06-13T02:56:35.928Z,20
2016-06-13T02:57:35.884Z,24
2016-06-13T02:58:35.873Z,28
2016-06-13T02:59:35.860Z,32
2016-06-13T03:00:35.832Z,32
2016-06-13T03:01:35.818Z,36
2016-06-13T03:02:35.806Z,40
2016-06-13T03:03:35.778Z,44
2016-06-13T03:04:35.766Z,48
2016-06-13T03:05:35.737Z,56
2016-06-13T03:06:35.725Z,60
2016-06-13T03:07:35.696Z,60
2016-06-13T03:08:35.669Z,64
2016-06-13T03:09:35.656Z,68
2016-06-13T03:10:35.643Z,76
2016-06-13T03:11:35.631Z,84
2016-06-13T03:12:35.587Z,88
2016-06-13T03:13:35.589Z,96
2016-06-13T03:14:35.547Z,108
2016-06-13T03:15:35.534Z,120
2016-06-13T03:16:35.505Z,132
2016-06-13T03:17:35.493Z,140
2016-06-13T03:18:35.480Z,152
2016-06-13T03:19:35.452Z,152
2016-06-13T03:20:35.440Z,152
2016-06-13T03:21:35.428Z,156
2016-06-13T03:22:35.399Z,164
2016-06-13T03:23:35.370Z,168
2016-06-13T03:24:35.358Z,160
2016-06-13T03:25:35.331Z,160
2016-06-13T03:26:35.020Z,160
2016-06-13T03:27:35.342Z,168
2016-06-13T03:28:35.339Z,180
2016-06-13T03:29:35.366Z,192
2016-06-13T03:30:35.223Z,200
2016-06-13T03:31:35.391Z,208
2016-06-13T03:32:35.405Z,220
2016-06-13T03:33:35.406Z,232
2016-06-13T03:34:35.392Z,240
2016-06-13T03:35:35.394Z,260
2016-06-13T03:36:35.381Z,284
2016-06-13T03:37:35.377Z,296
2016-06-13T03:38:35.197Z,296
2016-06-13T03:39:35.347Z,296
2016-06-13T03:40:35.324Z,288
2016-06-13T03:41:35.848Z,260
2016-06-13T03:42:35.136Z,204
2016-06-13T03:43:35.266Z,152
2016-06-13T03:44:35.255Z,120
2016-06-13T03:45:35.244Z,104
2016-06-13T03:46:35.218Z,96
2016-06-13T03:47:35.208Z,112
2016-06-13T03:48:35.180Z,184
2016-06-13T03:49:35.183Z,220
2016-06-13T03:50:35.140Z,220
2016-06-13T03:51:34.957Z,240
2016-06-13T03:52:35.102Z,204
2016-06-13T03:53:35.072Z,176
2016-06-13T03:54:34.920Z,140
2016-06-13T03:55:35.031Z,144
2016-06-13T03:56:35.020Z,164
2016-06-13T03:57:35.148Z,188
2016-06-13T03:58:34.979Z,180
2016-06-13T03:59:34.966Z,180
2016-06-13T04:00:34.938Z,188
2016-06-13T04:01:34.910Z,192
2016-06-13T04:02:34.897Z,196
2016-06-13T04:03:34.886Z,204
2016-06-13T04:04:34.872Z,208
2016-06-13T04:05:34.845Z,196
2016-06-13T04:06:34.831Z,144
2016-06-13T04:07:34.804Z,212
2016-06-13T04:08:34.776Z,292
2016-06-13T04:09:34.778Z,308
2016-06-13T04:10:34.750Z,288
2016-06-13T04:11:34.722Z,284
2016-06-13T04:12:34.631Z,280
2016-06-13T04:13:34.681Z,284
2016-06-13T04:14:34.669Z,252
2016-06-13T04:15:34.640Z,188
2016-06-13T04:16:34.613Z,124
2016-06-13T04:17:34.599Z,116
2016-06-13T04:18:34.587Z,116
2016-06-13T04:19:34.560Z,100
2016-06-13T04:20:34.547Z,140
2016-06-13T04:21:34.518Z,180
2016-06-13T04:22:34.489Z,224
2016-06-13T04:23:34.477Z,264
2016-06-13T04:24:34.450Z,320
2016-06-13T04:25:34.437Z,348
2016-06-13T04:26:34.439Z,500
2016-06-13T04:27:34.615Z,640
2016-06-13T04:28:34.368Z,588
2016-06-13T04:29:34.355Z,456
2016-06-13T04:30:34.343Z,572
2016-06-13T04:31:34.315Z,556
2016-06-13T04:32:34.286Z,524
2016-06-13T04:33:34.273Z,480
2016-06-13T04:34:34.245Z,432
2016-06-13T04:35:34.233Z,400
2016-06-13T04:36:34.205Z,516
2016-06-13T04:37:34.035Z,612
2016-06-13T04:38:34.164Z,776
2016-06-13T04:39:34.152Z,784
2016-06-13T04:40:34.124Z,808
2016-06-13T04:41:33.970Z,1024
2016-06-13T04:42:34.583Z,812
2016-06-13T04:43:34.070Z,868
2016-06-13T04:44:34.043Z,988
2016-06-13T04:45:34.029Z,1124
2016-06-13T04:46:34.017Z,1284
2016-06-13T04:47:33.989Z,1548
2016-06-13T04:48:33.960Z,1840
2016-06-13T04:49:33.947Z,2100
2016-06-13T04:50:33.935Z,2552
2016-06-13T04:51:33.923Z,2288
2016-06-13T04:52:33.895Z,2232
2016-06-13T04:53:33.867Z,2060
2016-06-13T04:54:33.838Z,1824
2016-06-13T04:55:33.826Z,1760
2016-06-13T04:56:34.266Z,1784
2016-06-13T04:57:33.802Z,2160
2016-06-13T04:58:33.773Z,2008
2016-06-13T04:59:33.744Z,2284
2016-06-13T05:00:33.716Z,2372
2016-06-13T05:01:33.720Z,2312
2016-06-13T05:02:33.692Z,2056
2016-06-13T05:03:33.695Z,1916
2016-06-13T05:04:33.651Z,2076
2016-06-13T05:05:33.465Z,2300
2016-06-13T05:06:33.454Z,2052
2016-06-13T05:07:33.582Z,1892
2016-06-13T05:08:33.569Z,1700
2016-06-13T05:09:33.556Z,1608
2016-06-13T05:10:33.528Z,1360
2016-06-13T05:11:33.765Z,1272
2016-06-13T05:12:33.503Z,1340
2016-06-13T05:13:33.490Z,1384
2016-06-13T05:14:33.447Z,1708
2016-06-13T05:15:33.450Z,1448
2016-06-13T05:16:33.421Z,1784
2016-06-13T05:17:33.394Z,2196
2016-06-13T05:18:33.381Z,2264
2016-06-13T05:19:33.353Z,1552
2016-06-13T05:20:33.340Z,1408
2016-06-13T05:21:33.312Z,1832
2016-06-13T05:22:33.284Z,1892
2016-06-13T05:23:33.271Z,1640
2016-06-13T05:24:33.259Z,1140
2016-06-13T05:25:33.230Z,1108
2016-06-13T05:26:33.219Z,1372
2016-06-13T05:27:34.112Z,1132
2016-06-13T05:28:33.177Z,812
2016-06-13T05:29:33.164Z,856
2016-06-13T05:30:33.137Z,892
2016-06-13T05:31:33.124Z,1232
2016-06-13T05:32:33.096Z,1688
2016-06-13T05:33:33.099Z,1584
2016-06-13T05:34:33.055Z,1740
2016-06-13T05:35:33.043Z,1948
2016-06-13T05:36:33.014Z,2172
2016-06-13T05:37:33.002Z,2824
2016-06-13T05:38:32.817Z,2324
2016-06-13T05:39:32.976Z,2044
2016-06-13T05:40:32.948Z,2128
2016-06-13T05:41:32.904Z,2232
2016-06-13T05:42:32.908Z,2204
2016-06-13T05:43:32.896Z,1792
2016-06-13T05:44:32.852Z,1192
2016-06-13T05:45:32.824Z,1312
2016-06-13T05:46:32.827Z,1612
2016-06-13T05:47:32.798Z,1684
2016-06-13T05:48:32.786Z,1952
2016-06-13T05:49:32.757Z,2548
2016-06-13T05:50:32.745Z,2688
2016-06-13T05:51:32.701Z,3024
2016-06-13T05:52:32.704Z,3300
2016-06-13T05:53:32.676Z,3068
2016-06-13T05:54:32.664Z,2644
2016-06-13T05:55:32.651Z,2708
2016-06-13T05:56:32.622Z,2708
2016-06-13T05:57:32.642Z,2492
2016-06-13T05:58:32.442Z,2792
2016-06-13T05:59:32.554Z,3300
2016-06-13T06:00:32.541Z,3460
2016-06-13T06:01:32.528Z,3728
2016-06-13T06:02:32.501Z,3896
2016-06-13T06:03:32.488Z,4112
2016-06-13T06:04:32.460Z,4256
2016-06-13T06:05:32.447Z,4104
2016-06-13T06:06:32.420Z,3892
2016-06-13T06:07:32.406Z,3932
2016-06-13T06:08:32.378Z,3804
2016-06-13T06:09:32.365Z,3444
2016-06-13T06:10:32.354Z,3620
2016-06-13T06:11:32.169Z,5132
2016-06-13T06:12:32.781Z,4392
2016-06-13T06:13:32.300Z,4568
2016-06-13T06:14:32.272Z,5920
2016-06-13T06:15:32.259Z,5612
2016-06-13T06:16:32.231Z,4724
2016-06-13T06:17:32.062Z,5840
2016-06-13T06:18:32.206Z,6224
2016-06-13T06:19:32.193Z,5808
2016-06-13T06:20:32.165Z,4736
2016-06-13T06:21:32.152Z,4836
2016-06-13T06:22:32.108Z,4376
2016-06-13T06:23:32.128Z,6236
2016-06-13T06:24:32.084Z,6944
2016-06-13T06:25:32.071Z,5944
2016-06-13T06:26:32.059Z,4696
2016-06-13T06:27:32.374Z,4608
2016-06-13T06:28:32.018Z,3976
2016-06-13T06:29:31.974Z,3392
2016-06-13T06:30:31.962Z,3288
2016-06-13T06:31:31.949Z,4044
2016-06-13T06:32:31.921Z,4244
2016-06-13T06:33:31.892Z,4844
2016-06-13T06:34:31.881Z,5200
2016-06-13T06:35:31.868Z,5740
2016-06-13T06:36:31.856Z,5620
2016-06-13T06:37:31.826Z,5764
2016-06-13T06:38:31.814Z,4648
2016-06-13T06:39:31.802Z,4308
2016-06-13T06:40:31.774Z,5912
2016-06-13T06:41:31.621Z,5776
2016-06-13T06:42:31.749Z,6328
2016-06-13T06:43:31.736Z,7376
2016-06-13T06:44:31.723Z,7428
2016-06-13T06:45:31.695Z,6876
2016-06-13T06:46:31.651Z,6536
2016-06-13T06:47:31.640Z,6628
2016-06-13T06:48:31.657Z,6412
2016-06-13T06:49:31.614Z,6444
2016-06-13T06:50:31.601Z,6140
2016-06-13T06:51:31.589Z,6000
2016-06-13T06:52:31.561Z,6528
2016-06-13T06:53:31.533Z,7748
2016-06-13T06:54:31.520Z,8784
2016-06-13T06:55:31.506Z,9360
2016-06-13T06:56:31.479Z,9488
2016-06-13T06:57:31.998Z,9424
2016-06-13T06:58:31.438Z,9224
2016-06-13T06:59:31.426Z,9276
2016-06-13T07:00:31.397Z,8132
2016-06-13T07:01:31.386Z,7884
2016-06-13T07:02:31.372Z,8468
2016-06-13T07:03:31.359Z,8488
2016-06-13T07:04:31.317Z,6704
2016-06-13T07:05:31.163Z,7848
2016-06-13T07:06:31.291Z,9200
2016-06-13T07:07:31.279Z,8704
2016-06-13T07:08:31.250Z,8584
2016-06-13T07:09:31.253Z,8508
2016-06-13T07:10:31.241Z,8896
2016-06-13T07:11:31.213Z,9064
2016-06-13T07:12:31.387Z,10076
2016-06-13T07:13:31.172Z,9684
2016-06-13T07:14:31.160Z,11920
2016-06-13T07:15:31.131Z,10952
2016-06-13T07:16:30.963Z,10408
2016-06-13T07:17:31.091Z,9700
2016-06-13T07:18:31.078Z,9636
2016-06-13T07:19:30.909Z,9620
2016-06-13T07:20:31.052Z,9296
2016-06-13T07:21:30.869Z,9388
2016-06-13T07:22:31.012Z,9972
2016-06-13T07:23:30.984Z,9564
2016-06-13T07:24:30.971Z,8772
2016-06-13T07:25:30.960Z,6768
2016-06-13T07:26:30.946Z,6684
2016-06-13T07:27:30.777Z,4268
2016-06-13T07:28:31.219Z,3500
2016-06-13T07:29:30.878Z,3720
2016-06-13T07:30:30.911Z,3284
2016-06-13T07:31:30.852Z,2740
2016-06-13T07:32:30.839Z,2868
2016-06-13T07:33:30.812Z,3580
2016-06-13T07:34:30.814Z,4000
2016-06-13T07:35:30.771Z,4216
2016-06-13T07:36:30.758Z,4476
2016-06-13T07:37:30.746Z,4048
2016-06-13T07:38:30.733Z,4096
2016-06-13T07:39:30.720Z,3816
2016-06-13T07:40:30.692Z,3660
2016-06-13T07:41:30.665Z,2780
2016-06-13T07:42:31.354Z,3076
2016-06-13T07:43:30.483Z,3784
2016-06-13T07:44:30.611Z,4116
2016-06-13T07:45:30.598Z,4008
2016-06-13T07:46:30.585Z,3504
2016-06-13T07:47:30.574Z,3804
2016-06-13T07:48:30.389Z,3900
2016-06-13T07:49:30.533Z,4564
2016-06-13T07:50:30.504Z,5104
2016-06-13T07:51:30.492Z,5248
2016-06-13T07:52:30.479Z,4596
2016-06-13T07:53:30.296Z,4508
2016-06-13T07:54:30.298Z,3972
2016-06-13T07:55:30.113Z,3072
2016-06-13T07:56:30.414Z,2500
2016-06-13T07:57:31.495Z,2552
2016-06-13T07:58:30.372Z,2696
2016-06-13T07:59:30.329Z,2712
2016-06-13T08:00:30.317Z,2780
2016-06-13T08:01:30.304Z,3560
2016-06-13T08:02:30.291Z,3648
2016-06-13T08:03:30.263Z,3584
2016-06-13T08:04:30.251Z,3356
2016-06-13T08:05:30.238Z,3120
2016-06-13T08:06:30.194Z,3084
2016-06-13T08:07:30.197Z,3364
2016-06-13T08:08:30.184Z,3744
2016-06-13T08:09:30.142Z,3888
2016-06-13T08:10:30.144Z,3720
2016-06-13T08:11:30.115Z,3884
2016-06-13T08:12:30.822Z,4152
2016-06-13T08:13:30.154Z,4432
2016-06-13T08:14:30.046Z,4644
2016-06-13T08:15:30.035Z,4984
2016-06-13T08:16:30.021Z,5248
2016-06-13T08:17:29.994Z,5296
2016-06-13T08:18:29.997Z,5352
2016-06-13T08:19:29.953Z,5308
2016-06-13T08:20:29.956Z,5368
2016-06-13T08:21:29.929Z,5300
2016-06-13T08:22:29.915Z,5168
2016-06-13T08:23:29.888Z,5204
2016-06-13T08:24:29.858Z,5324
2016-06-13T08:25:29.830Z,5360
2016-06-13T08:26:29.834Z,5480
2016-06-13T08:27:29.525Z,5884
2016-06-13T08:28:30.089Z,6548
2016-06-13T08:29:29.781Z,7244
2016-06-13T08:30:29.752Z,7804
2016-06-13T08:31:29.740Z,8016
2016-06-13T08:32:29.727Z,8192
2016-06-13T08:33:29.543Z,8680
2016-06-13T08:34:29.686Z,9412
2016-06-13T08:35:29.658Z,9952
2016-06-13T08:36:29.631Z,10716
2016-06-13T08:37:29.634Z,11444
2016-06-13T08:38:29.606Z,11564
2016-06-13T08:39:29.592Z,11448
2016-06-13T08:40:29.565Z,11356
2016-06-13T08:41:29.552Z,10832
2016-06-13T08:42:30.492Z,10364
2016-06-13T08:43:29.667Z,9984
2016-06-13T08:44:29.499Z,9776
2016-06-13T08:45:29.486Z,9760
2016-06-13T08:46:29.458Z,9648
2016-06-13T08:47:29.289Z,8872
2016-06-13T08:48:29.448Z,8668
2016-06-13T08:49:29.405Z,9004
2016-06-13T08:50:29.392Z,9040
2016-06-13T08:51:29.379Z,9332
2016-06-13T08:52:29.352Z,10076
2016-06-13T08:53:29.339Z,10948
2016-06-13T08:54:29.341Z,11668
2016-06-13T08:55:29.142Z,12076
2016-06-13T08:56:29.286Z,12496
2016-06-13T08:57:29.460Z,12968
2016-06-13T08:58:29.354Z,13412
2016-06-13T08:59:29.232Z,14168
2016-06-13T09:00:29.048Z,14556
2016-06-13T09:01:29.192Z,17688
2016-06-13T09:02:29.163Z,20576
2016-06-13T09:03:29.166Z,26048
2016-06-13T09:04:29.138Z,22144
2016-06-13T09:05:28.970Z,18184
2016-06-13T09:06:28.784Z,16904
2016-06-13T09:07:29.085Z,15804
2016-06-13T09:08:29.073Z,15812
2016-06-13T09:09:29.044Z,13752
2016-06-13T09:10:29.047Z,13956
2016-06-13T09:11:29.018Z,13684
2016-06-13T09:12:29.006Z,12688
2016-06-13T09:13:28.994Z,12396
2016-06-13T09:14:28.966Z,13292
2016-06-13T09:15:28.953Z,14284
2016-06-13T09:16:28.941Z,15908
2016-06-13T09:17:28.943Z,17256
2016-06-13T09:18:28.899Z,17468
2016-06-13T09:19:28.888Z,16848
2016-06-13T09:20:28.875Z,17448
2016-06-13T09:21:28.846Z,17824
2016-06-13T09:22:28.834Z,17632
2016-06-13T09:23:28.822Z,17868
2016-06-13T09:24:28.808Z,17628
2016-06-13T09:25:28.781Z,17576
2016-06-13T09:26:28.768Z,17160
2016-06-13T09:27:28.771Z,16696
2016-06-13T09:28:28.930Z,16320
2016-06-13T09:29:28.731Z,15652
2016-06-13T09:30:28.718Z,16284
2016-06-13T09:31:28.689Z,16360
2016-06-13T09:32:28.662Z,16280
2016-06-13T09:33:28.665Z,18100
2016-06-13T09:34:28.637Z,19424
2016-06-13T09:35:28.624Z,20896
2016-06-13T09:36:28.595Z,21344
2016-06-13T09:37:28.583Z,21472
2016-06-13T09:38:28.571Z,21632
2016-06-13T09:39:28.558Z,21664
2016-06-13T09:40:28.530Z,21664
2016-06-13T09:41:28.533Z,21408
2016-06-13T09:42:28.520Z,20960
2016-06-13T09:43:29.212Z,21088
2016-06-13T09:44:28.480Z,21408
2016-06-13T09:45:28.467Z,20960
2016-06-13T09:46:28.439Z,20544
2016-06-13T09:47:28.427Z,19968
2016-06-13T09:48:28.414Z,19680
2016-06-13T09:49:28.385Z,19296
2016-06-13T09:50:28.373Z,19456
2016-06-13T09:51:28.361Z,19424
2016-06-13T09:52:28.348Z,19328
2016-06-13T09:53:28.336Z,19232
2016-06-13T09:54:28.307Z,18976
2016-06-13T09:55:28.155Z,18784
2016-06-13T09:56:28.282Z,18188
2016-06-13T09:57:28.269Z,17888
2016-06-13T09:58:28.914Z,17772
2016-06-13T09:59:28.244Z,17852
2016-06-13T10:00:28.232Z,18076
2016-06-13T10:01:28.203Z,18848
2016-06-13T10:02:28.192Z,19488
2016-06-13T10:03:28.179Z,19904
2016-06-13T10:04:28.009Z,20128
2016-06-13T10:05:28.154Z,20128
2016-06-13T10:06:28.141Z,20544
2016-06-13T10:07:28.129Z,20128
2016-06-13T10:08:28.116Z,19552
2016-06-13T10:09:28.104Z,19104
2016-06-13T10:10:28.091Z,19104
2016-06-13T10:11:28.047Z,19392
2016-06-13T10:12:28.051Z,19520
2016-06-13T10:13:27.726Z,19744
2016-06-13T10:14:28.009Z,19360
2016-06-13T10:15:27.996Z,18912
2016-06-13T10:16:27.969Z,19040
2016-06-13T10:17:27.816Z,19520
2016-06-13T10:18:27.944Z,19744
2016-06-13T10:19:27.930Z,19776
2016-06-13T10:20:27.919Z,19936
2016-06-13T10:21:27.906Z,19744
2016-06-13T10:22:27.878Z,19744
2016-06-13T10:23:27.865Z,20224
2016-06-13T10:24:27.869Z,20896
2016-06-13T10:25:27.840Z,21664
2016-06-13T10:26:28.780Z,22272
2016-06-13T10:27:27.799Z,22528
2016-06-13T10:28:28.006Z,22784
2016-06-13T10:29:27.634Z,22816
2016-06-13T10:30:27.761Z,23072
2016-06-13T10:31:27.749Z,23520
2016-06-13T10:32:27.721Z,24128
2016-06-13T10:33:27.709Z,24928
2016-06-13T10:34:27.696Z,24512
2016-06-13T10:35:27.684Z,24288
2016-06-13T10:36:27.671Z,24288
2016-06-13T10:37:27.658Z,25120
2016-06-13T10:38:27.661Z,25696
2016-06-13T10:39:27.477Z,25952
2016-06-13T10:40:27.620Z,26144
2016-06-13T10:41:27.593Z,25984
2016-06-13T10:42:27.580Z,26144
2016-06-13T10:43:28.786Z,25248
2016-06-13T10:44:27.585Z,25344
2016-06-13T10:45:27.542Z,25600
2016-06-13T10:46:27.530Z,24192
2016-06-13T10:47:27.502Z,24704
2016-06-13T10:48:27.505Z,24064
2016-06-13T10:49:27.476Z,24416
2016-06-13T10:50:27.479Z,26528
2016-06-13T10:51:27.451Z,26816
2016-06-13T10:52:27.438Z,26336
2016-06-13T10:53:27.441Z,24736
2016-06-13T10:54:27.413Z,25536
2016-06-13T10:55:27.402Z,27488
2016-06-13T10:56:27.233Z,26432
2016-06-13T10:57:27.376Z,22432
2016-06-13T10:58:27.489Z,19808
2016-06-13T10:59:27.335Z,16228
2016-06-13T11:00:27.323Z,13316
2016-06-13T11:01:27.310Z,13852
2016-06-13T11:02:27.313Z,17308
2016-06-13T11:03:27.301Z,20448
2016-06-13T11:04:27.272Z,19712
2016-06-13T11:05:27.275Z,16996
2016-06-13T11:06:27.248Z,14500
2016-06-13T11:07:27.235Z,14716
2016-06-13T11:08:27.223Z,13336
2016-06-13T11:09:27.226Z,11304
2016-06-13T11:10:27.182Z,12196
2016-06-13T11:11:27.185Z,13508
2016-06-13T11:12:27.157Z,15904
2016-06-13T11:13:27.566Z,19328
2016-06-13T11:14:27.131Z,21472
2016-06-13T11:15:27.119Z,20896
2016-06-13T11:16:27.122Z,19008
2016-06-13T11:17:27.125Z,18528
2016-06-13T11:18:27.081Z,19040
2016-06-13T11:19:27.068Z,20320
2016-06-13T11:20:27.057Z,20480
2016-06-13T11:21:27.044Z,20864
2016-06-13T11:22:27.031Z,21248
2016-06-13T11:23:27.002Z,23072
2016-06-13T11:24:26.991Z,24096
2016-06-13T11:25:26.994Z,23072
2016-06-13T11:26:26.981Z,20320
2016-06-13T11:27:26.953Z,21440
2016-06-13T11:28:27.846Z,23232
2016-06-13T11:29:26.927Z,22784
2016-06-13T11:30:33.727Z,21440
2016-06-13T11:31:26.902Z,21248
2016-06-13T11:32:26.890Z,19808
2016-06-13T11:33:26.893Z,19200
2016-06-13T11:34:26.850Z,20512
2016-06-13T11:35:26.853Z,23360
2016-06-13T11:36:26.840Z,26016
2016-06-13T11:37:26.827Z,27232
2016-06-13T11:38:26.815Z,25728
2016-06-13T11:39:26.787Z,24256
2016-06-13T11:40:26.774Z,21824
2016-06-13T11:41:26.761Z,21600
2016-06-13T11:42:26.749Z,22080
2016-06-13T11:43:26.736Z,20992
2016-06-13T11:44:26.724Z,19296
2016-06-13T11:45:26.727Z,17252
2016-06-13T11:46:26.698Z,15420
2016-06-13T11:47:26.686Z,13576
2016-06-13T11:48:26.673Z,12584
2016-06-13T11:49:26.676Z,12564
2016-06-13T11:50:26.648Z,13852
2016-06-13T11:51:26.636Z,15736
2016-06-13T11:52:26.608Z,16492
2016-06-13T11:53:26.470Z,16428
2016-06-13T11:54:26.598Z,16544
2016-06-13T11:55:26.570Z,16020
2016-06-13T11:56:26.401Z,14848
2016-06-13T11:57:26.546Z,13828
2016-06-13T11:58:27.032Z,13668
2016-06-13T11:59:26.910Z,12420
2016-06-13T12:00:26.491Z,10468
2016-06-13T12:01:26.495Z,8668
2016-06-13T12:02:26.483Z,5924
2016-06-13T12:03:26.469Z,5108
2016-06-13T12:04:26.457Z,5872
2016-06-13T12:05:26.444Z,6676
2016-06-13T12:06:26.415Z,7664
2016-06-13T12:07:26.435Z,8664
2016-06-13T12:08:26.407Z,9384
2016-06-13T12:09:26.379Z,10136
2016-06-13T12:10:26.366Z,11084
2016-06-13T12:11:26.338Z,12092
2016-06-13T12:12:26.325Z,13084
2016-06-13T12:13:27.250Z,14056
2016-06-13T12:14:26.503Z,15044
2016-06-13T12:15:26.288Z,15880
2016-06-13T12:16:26.259Z,16632
2016-06-13T12:17:26.246Z,17360
2016-06-13T12:18:26.235Z,17952
2016-06-13T12:19:26.222Z,18432
2016-06-13T12:20:26.100Z,19104
2016-06-13T12:21:26.181Z,19456
2016-06-13T12:22:26.169Z,19680
2016-06-13T12:23:26.156Z,19840
2016-06-13T12:24:26.143Z,19904
2016-06-13T12:25:26.132Z,19968
2016-06-13T12:26:26.102Z,20032
2016-06-13T12:27:26.090Z,20096
2016-06-13T12:28:26.828Z,20064
2016-06-13T12:29:26.441Z,20032
2016-06-13T12:30:26.037Z,20000
2016-06-13T12:31:26.039Z,20096
2016-06-13T12:32:26.059Z,20224
2016-06-13T12:33:26.030Z,20352
2016-06-13T12:34:26.059Z,20448
2016-06-13T12:35:26.087Z,20512
2016-06-13T12:36:26.115Z,20576
2016-06-13T12:37:26.127Z,20704
2016-06-13T12:38:26.135Z,20800
2016-06-13T12:39:26.153Z,20832
2016-06-13T12:40:26.139Z,20896
2016-06-13T12:41:26.142Z,20960
2016-06-13T12:42:26.129Z,21024
2016-06-13T12:43:26.810Z,21024
2016-06-13T12:44:27.522Z,20992
2016-06-13T12:45:26.108Z,20928
2016-06-13T12:46:26.116Z,20896
2016-06-13T12:47:26.077Z,20864
2016-06-13T12:48:26.067Z,20832
2016-06-13T12:49:26.072Z,20704
2016-06-13T12:50:26.046Z,20608
2016-06-13T12:51:26.035Z,20608
2016-06-13T12:52:26.025Z,20640
2016-06-13T12:53:26.029Z,20704
2016-06-13T12:54:25.986Z,20832
2016-06-13T12:55:25.974Z,20896
2016-06-13T12:56:25.962Z,20960
2016-06-13T12:57:25.794Z,21024
2016-06-13T12:58:25.938Z,21056
2016-06-13T12:59:26.551Z,21152
2016-06-13T13:00:25.898Z,21184
2016-06-13T13:01:25.745Z,21216
2016-06-13T13:02:25.874Z,21248
2016-06-13T13:03:25.861Z,21152
2016-06-13T13:04:25.849Z,20928
2016-06-13T13:05:25.836Z,20832
2016-06-13T13:06:25.824Z,21056
2016-06-13T13:07:25.639Z,20896
2016-06-13T13:08:25.784Z,20224
2016-06-13T13:09:25.989Z,19488
2016-06-13T13:10:25.774Z,18232
2016-06-13T13:11:25.745Z,17756
2016-06-13T13:12:25.905Z,15540
2016-06-13T13:13:25.767Z,13424
2016-06-13T13:14:25.724Z,15736
2016-06-13T13:15:25.711Z,15188
2016-06-13T13:16:25.667Z,15508
2016-06-13T13:17:25.639Z,17276
2016-06-13T13:18:25.876Z,15856
2016-06-13T13:19:25.864Z,14640
2016-06-13T13:20:25.632Z,17048
2016-06-13T13:21:25.588Z,17628
2016-06-13T13:22:25.841Z,16784
2016-06-13T13:23:26.016Z,16584
2016-06-13T13:24:25.582Z,18432
2016-06-13T13:25:25.570Z,18976
2016-06-13T13:26:25.526Z,19264
2016-06-13T13:27:25.013Z,19296
2016-06-13T13:28:25.204Z,19200
2016-06-13T13:29:26.254Z,18880
2016-06-13T13:30:25.460Z,17808